Time;durP1;ratioP1;P1;durP2;ratioP2;P2;SDS_P1;SDS_P2;PMS_P1;PMS_P2;Temp;Humidity;BMP_temperature;BMP_pressure;BME280_temperature;BME280_humidity;BME280_pressure;Samples;Min_cycle;Max_cycle;Signal;HPM_P1;HPM_P2
2023/03/14 00:00:10;;;;;;;5.90;1.53;;;11.70;99.90;;;;;;4992850;28;20904;-79
2023/03/14 00:02:37;;;;;;;4.10;1.63;;;11.70;95.40;;;;;;4976432;28;20527;-78
2023/03/14 00:05:06;;;;;;;3.23;1.30;;;11.70;34.30;;;;;;4973755;28;20852;-78
2023/03/14 00:07:35;;;;;;;5.90;1.30;;;11.60;99.90;;;;;;4989066;28;20456;-78
2023/03/14 00:10:04;;;;;;;5.87;1.60;;;11.60;99.90;;;;;;4993254;28;20493;-78
2023/03/14 00:12:31;;;;;;;3.20;1.13;;;11.50;99.90;;;;;;4978504;28;20458;-78
2023/03/14 00:14:59;;;;;;;3.17;1.43;;;11.50;99.90;;;;;;4974225;28;20485;-78
2023/03/14 00:17:28;;;;;;;5.20;1.50;;;11.50;99.90;;;;;;4986600;28;20496;-77
2023/03/14 00:19:54;;;;;;;3.30;1.20;;;11.50;99.90;;;;;;4993325;28;20489;-78
2023/03/14 00:22:22;;;;;;;5.33;1.67;;;11.40;99.90;;;;;;4980947;28;20912;-77
2023/03/14 00:24:49;;;;;;;2.83;1.27;;;11.30;1.00;;;;;;4974342;28;20962;-78
2023/03/14 00:27:16;;;;;;;6.67;1.40;;;11.30;1.00;;;;;;4984596;28;20545;-80
2023/03/14 00:29:43;;;;;;;12.57;1.90;;;11.30;1.00;;;;;;4993041;28;20959;-79
2023/03/14 00:32:10;;;;;;;6.23;1.40;;;11.30;1.00;;;;;;4992083;28;20462;-78
2023/03/14 00:34:39;;;;;;;3.03;1.37;;;11.30;1.00;;;;;;4993039;28;20459;-78
2023/03/14 00:37:06;;;;;;;4.43;1.77;;;11.40;99.90;;;;;;4985642;28;20550;-78
2023/03/14 00:39:33;;;;;;;2.80;1.57;;;11.40;99.90;;;;;;4973250;28;20491;-78
2023/03/14 00:42:00;;;;;;;5.30;1.70;;;11.50;92.50;;;;;;4979539;28;20462;-78
2023/03/14 00:44:26;;;;;;;3.47;1.10;;;11.60;1.00;;;;;;4993106;28;20457;-80
2023/03/14 00:46:53;;;;;;;5.20;1.40;;;11.70;1.00;;;;;;4988194;28;20985;-78
2023/03/14 00:49:20;;;;;;;7.30;1.53;;;11.80;99.90;;;;;;4974833;28;20485;-78
2023/03/14 00:51:48;;;;;;;6.27;1.73;;;11.80;99.90;;;;;;4979798;28;20473;-80
2023/03/14 00:54:15;;;;;;;6.27;2.07;;;11.90;1.00;;;;;;5007030;28;20474;-80
2023/03/14 00:56:42;;;;;;;4.60;2.07;;;11.90;1.00;;;;;;5008248;28;20463;-80
2023/03/14 00:59:11;;;;;;;8.53;2.13;;;11.90;1.00;;;;;;4990301;28;20607;-81
2023/03/14 01:01:39;;;;;;;10.27;2.47;;;11.70;99.90;;;;;;4991508;28;20535;-81
2023/03/14 01:04:06;;;;;;;4.50;1.50;;;11.40;43.10;;;;;;5010638;28;20458;-80
2023/03/14 01:06:32;;;;;;;6.10;1.87;;;11.10;69.40;;;;;;5010799;28;20993;-80
2023/03/14 01:09:01;;;;;;;4.53;1.53;;;10.70;99.90;;;;;;5009425;28;21117;-79
2023/03/14 01:11:30;;;;;;;10.63;1.10;;;10.50;99.90;;;;;;5012921;28;20488;-82
2023/03/14 01:13:57;;;;;;;2.90;1.00;;;10.20;99.90;;;;;;5014055;28;20456;-80
2023/03/14 01:16:27;;;;;;;3.10;1.17;;;10.00;99.90;;;;;;5004677;28;20454;-79
2023/03/14 01:18:54;;;;;;;5.40;1.20;;;9.90;99.90;;;;;;4984998;28;20480;-80
2023/03/14 01:21:24;;;;;;;2.47;0.90;;;9.80;99.90;;;;;;4998056;28;20494;-78
2023/03/14 01:23:52;;;;;;;2.30;1.30;;;9.60;99.90;;;;;;4998251;28;20557;-80
2023/03/14 01:26:22;;;;;;;2.33;0.70;;;9.60;99.90;;;;;;4998754;28;20453;-80
2023/03/14 01:28:50;;;;;;;3.87;0.93;;;9.60;99.90;;;;;;4982923;28;20448;-81
2023/03/14 01:31:18;;;;;;;2.90;1.00;;;9.50;99.90;;;;;;4978164;28;20560;-81
2023/03/14 01:33:45;;;;;;;4.10;1.17;;;9.50;99.90;;;;;;4992224;28;20461;-80
2023/03/14 01:36:12;;;;;;;4.90;1.03;;;9.50;99.90;;;;;;4998417;28;20531;-79
2023/03/14 01:38:40;;;;;;;3.40;1.20;;;9.50;99.90;;;;;;4986226;28;20491;-80
2023/03/14 01:41:12;;;;;;;9.30;1.40;;;9.50;99.90;;;;;;4978108;28;20492;-81
2023/03/14 01:43:40;;;;;;;3.17;1.20;;;9.50;99.90;;;;;;4997292;28;20459;-81
2023/03/14 01:46:34;;;;;;;6.90;1.30;;;9.50;99.90;;;;;;4998057;28;20457;-81
2023/03/14 01:49:13;;;;;;;7.27;1.30;;;9.50;99.90;;;;;;4978591;28;20960;-81
2023/03/14 01:51:47;;;;;;;2.17;1.33;;;9.50;99.90;;;;;;4979080;28;20455;-81
2023/03/14 01:54:19;;;;;;;7.20;2.17;;;9.50;99.90;;;;;;4998401;28;20452;-81
2023/03/14 01:56:49;;;;;;;5.50;1.60;;;9.60;99.90;;;;;;4996409;28;20460;-82
2023/03/14 01:59:18;;;;;;;5.03;1.00;;;9.50;99.90;;;;;;4977545;28;21065;-80
2023/03/14 02:01:47;;;;;;;3.40;1.20;;;9.50;99.90;;;;;;4977181;28;20469;-79
2023/03/14 02:04:15;;;;;;;2.70;1.30;;;9.50;99.90;;;;;;5001786;28;20464;-79
2023/03/14 02:06:49;;;;;;;3.70;1.40;;;9.50;99.90;;;;;;5003903;28;20452;-78
2023/03/14 02:09:17;;;;;;;5.50;1.17;;;9.50;99.90;;;;;;4983960;28;20461;-79
2023/03/14 02:11:45;;;;;;;4.97;1.37;;;9.50;99.90;;;;;;4982585;28;20473;-78
2023/03/14 02:14:24;;;;;;;4.07;1.60;;;9.60;99.90;;;;;;4998381;28;20547;-79
2023/03/14 02:16:51;;;;;;;4.70;1.43;;;9.60;99.90;;;;;;4994472;28;20460;-80
2023/03/14 02:19:26;;;;;;;2.97;1.20;;;9.50;99.90;;;;;;4996638;28;20497;-80
2023/03/14 02:21:58;;;;;;;14.73;2.10;;;9.50;99.90;;;;;;4994755;28;20545;-80
2023/03/14 02:24:31;;;;;;;3.40;1.07;;;9.50;99.90;;;;;;4996280;28;20459;-78
2023/03/14 02:27:20;;;;;;;6.10;1.20;;;9.50;99.90;;;;;;4992141;28;20457;-78
2023/03/14 02:29:52;;;;;;;5.73;1.30;;;9.50;99.90;;;;;;4976653;28;20472;-81
2023/03/14 02:32:21;;;;;;;4.83;1.53;;;9.50;99.90;;;;;;4982116;28;20457;-81
2023/03/14 02:34:53;;;;;;;7.50;1.63;;;9.50;99.90;;;;;;4983421;28;20445;-80
2023/03/14 02:37:22;;;;;;;4.63;1.97;;;9.50;99.90;;;;;;4977233;28;20445;-80
2023/03/14 02:39:49;;;;;;;4.27;1.63;;;9.50;99.90;;;;;;4983741;28;20491;-81
2023/03/14 02:42:17;;;;;;;6.60;1.80;;;9.50;99.90;;;;;;4996577;28;20454;-81
2023/03/14 02:44:54;;;;;;;5.43;1.17;;;9.50;99.90;;;;;;4990256;28;20448;-81
2023/03/14 02:47:27;;;;;;;5.03;1.20;;;9.50;99.90;;;;;;4976664;28;20458;-80
2023/03/14 02:49:59;;;;;;;5.10;1.20;;;9.50;99.90;;;;;;4983181;28;20471;-81
2023/03/14 02:52:26;;;;;;;5.10;1.30;;;9.50;99.90;;;;;;4996501;28;20556;-81
2023/03/14 02:54:52;;;;;;;7.03;1.47;;;9.50;99.90;;;;;;4990294;28;20468;-82
2023/03/14 02:57:19;;;;;;;8.00;1.40;;;9.60;99.90;;;;;;4977647;28;20548;-81
2023/03/14 02:59:46;;;;;;;5.60;1.30;;;9.60;99.90;;;;;;4980540;28;20497;-82
2023/03/14 03:02:14;;;;;;;5.47;1.40;;;9.60;99.90;;;;;;4996192;28;20452;-81
2023/03/14 03:04:41;;;;;;;15.03;1.83;;;9.70;99.90;;;;;;4995369;28;20445;-82
2023/03/14 03:07:08;;;;;;;3.43;1.20;;;9.70;99.90;;;;;;4995970;28;20464;-82
2023/03/14 03:09:35;;;;;;;6.50;1.63;;;9.70;99.90;;;;;;4994788;28;20452;-82
2023/03/14 03:12:01;;;;;;;3.83;1.40;;;9.70;99.90;;;;;;4975758;28;20458;-83
2023/03/14 03:14:28;;;;;;;6.40;1.60;;;9.60;99.90;;;;;;4995324;28;20532;-81
2023/03/14 03:16:55;;;;;;;7.50;1.20;;;9.70;99.90;;;;;;4992480;28;20545;-83
2023/03/14 03:19:23;;;;;;;6.40;1.30;;;9.60;99.90;;;;;;4995903;28;20499;-81
2023/03/14 03:21:50;;;;;;;4.27;1.57;;;9.60;99.90;;;;;;4989667;28;20486;-81
2023/03/14 03:24:17;;;;;;;6.00;1.40;;;9.50;99.90;;;;;;4995779;28;20458;-80
2023/03/14 03:26:44;;;;;;;5.43;1.37;;;9.50;99.90;;;;;;4995797;28;20482;-81
2023/03/14 03:29:10;;;;;;;6.17;1.90;;;9.50;99.90;;;;;;4996518;28;20449;-81
2023/03/14 03:31:38;;;;;;;5.43;1.47;;;9.60;99.90;;;;;;4994925;28;20558;-81
2023/03/14 03:34:05;;;;;;;4.80;1.30;;;9.50;99.90;;;;;;4996063;28;20461;-81
2023/03/14 03:36:33;;;;;;;6.70;1.70;;;9.50;99.90;;;;;;4995896;28;20453;-82
2023/03/14 03:39:00;;;;;;;5.93;1.50;;;9.50;99.90;;;;;;4995828;28;20491;-82
2023/03/14 03:41:27;;;;;;;2.80;1.27;;;9.50;99.90;;;;;;4981175;28;20513;-80
2023/03/14 03:43:57;;;;;;;3.50;1.20;;;9.60;99.90;;;;;;4976474;28;20457;-82
2023/03/14 03:46:24;;;;;;;5.07;1.63;;;9.70;99.90;;;;;;4977246;28;20453;-80
2023/03/14 03:48:55;;;;;;;2.93;1.20;;;9.70;99.90;;;;;;4977444;28;20448;-81
2023/03/14 03:51:22;;;;;;;6.80;2.17;;;9.70;99.90;;;;;;4992646;28;20618;-83
2023/03/14 03:53:50;;;;;;;6.03;1.77;;;9.80;99.90;;;;;;4996382;28;20466;-81
2023/03/14 03:56:18;;;;;;;5.63;2.00;;;9.90;99.90;;;;;;4995944;28;20513;-80
2023/03/14 03:58:45;;;;;;;10.23;1.90;;;9.90;99.90;;;;;;4995749;28;20979;-82
2023/03/14 04:01:12;;;;;;;7.63;2.00;;;10.00;99.90;;;;;;4995090;28;20997;-80
2023/03/14 04:03:40;;;;;;;8.70;1.17;;;9.90;99.90;;;;;;4996144;28;20550;-82
2023/03/14 04:06:09;;;;;;;7.20;1.80;;;9.80;99.90;;;;;;4983109;28;20462;-79
2023/03/14 04:08:36;;;;;;;7.63;1.70;;;9.70;99.90;;;;;;4975949;28;20469;-79
2023/03/14 04:11:05;;;;;;;6.40;1.70;;;9.60;99.90;;;;;;4975224;28;21025;-81
2023/03/14 04:13:32;;;;;;;5.43;1.13;;;9.50;99.90;;;;;;4976413;28;20463;-81
2023/03/14 04:15:59;;;;;;;4.43;1.40;;;9.50;99.90;;;;;;4976359;28;20475;-80
2023/03/14 04:18:25;;;;;;;2.33;1.17;;;9.40;99.90;;;;;;4975819;28;20464;-83
2023/03/14 04:20:53;;;;;;;2.53;1.53;;;9.30;99.90;;;;;;4976291;28;20483;-82
2023/03/14 04:23:21;;;;;;;5.90;1.20;;;9.30;99.90;;;;;;4975501;28;20452;-80
2023/03/14 04:25:51;;;;;;;7.17;1.30;;;9.30;99.90;;;;;;4987519;28;20460;-82
2023/03/14 04:28:20;;;;;;;9.73;1.60;;;9.30;99.90;;;;;;4999268;28;20457;-82
2023/03/14 04:30:49;;;;;;;4.30;1.20;;;9.30;99.90;;;;;;4997309;28;20480;-82
2023/03/14 04:33:18;;;;;;;3.43;1.20;;;9.30;99.90;;;;;;4999124;28;21018;-81
2023/03/14 04:35:46;;;;;;;1.80;0.87;;;9.30;99.90;;;;;;4997593;28;20455;-78
2023/03/14 04:38:13;;;;;;;4.20;1.13;;;9.20;99.90;;;;;;4998702;28;20451;-82
2023/03/14 04:40:41;;;;;;;2.47;0.90;;;9.20;99.90;;;;;;5021490;23;20497;-80
2023/03/14 04:43:09;;;;;;;3.53;0.90;;;9.10;99.90;;;;;;5009227;28;20451;-80
2023/03/14 04:45:37;;;;;;;2.87;0.80;;;9.10;99.90;;;;;;5003633;28;20463;-80
2023/03/14 04:48:04;;;;;;;2.37;0.70;;;9.00;99.90;;;;;;5009697;28;20460;-80
2023/03/14 04:50:31;;;;;;;4.70;0.80;;;9.00;99.90;;;;;;5017385;28;20463;-80
2023/03/14 04:52:58;;;;;;;6.67;1.07;;;8.80;99.90;;;;;;5018515;28;20458;-79
2023/03/14 04:55:25;;;;;;;1.70;0.80;;;8.80;99.90;;;;;;5016933;28;20455;-80
2023/03/14 04:57:52;;;;;;;2.30;0.77;;;8.80;99.90;;;;;;5017343;28;20458;-79
2023/03/14 05:00:19;;;;;;;2.63;1.03;;;8.70;99.90;;;;;;5018651;28;20571;-80
2023/03/14 05:02:47;;;;;;;3.77;0.70;;;8.70;99.90;;;;;;5017201;28;20513;-80
2023/03/14 05:05:14;;;;;;;1.40;0.77;;;8.70;99.90;;;;;;5017095;28;20464;-80
2023/03/14 05:07:40;;;;;;;1.63;0.70;;;8.70;99.90;;;;;;5012985;28;20467;-81
2023/03/14 05:10:08;;;;;;;1.83;0.93;;;8.70;99.90;;;;;;5015493;28;20954;-80
2023/03/14 05:12:35;;;;;;;2.93;0.90;;;8.70;99.90;;;;;;5016801;28;20465;-80
2023/03/14 05:15:02;;;;;;;3.93;0.80;;;8.60;99.90;;;;;;5017435;28;20454;-78
2023/03/14 05:17:28;;;;;;;1.93;0.70;;;8.60;99.90;;;;;;5012813;28;20468;-81
2023/03/14 05:19:56;;;;;;;1.50;0.60;;;8.50;99.90;;;;;;5011975;28;20492;-81
2023/03/14 05:22:23;;;;;;;5.93;1.93;;;8.60;99.90;;;;;;5015807;28;20561;-80
2023/03/14 05:24:50;;;;;;;2.23;0.70;;;8.60;99.90;;;;;;5016506;28;20452;-80
2023/03/14 05:27:17;;;;;;;1.50;0.60;;;8.60;99.90;;;;;;5015976;28;20473;-82
2023/03/14 05:29:44;;;;;;;1.67;0.90;;;8.60;99.90;;;;;;5017648;28;20498;-81
2023/03/14 05:32:10;;;;;;;2.30;0.80;;;8.60;99.90;;;;;;5019563;28;20485;-81
2023/03/14 05:34:37;;;;;;;2.23;0.80;;;8.60;99.90;;;;;;5024936;28;20454;-81
2023/03/14 05:37:05;;;;;;;1.90;0.70;;;8.60;99.90;;;;;;5024953;28;20480;-81
2023/03/14 05:39:32;;;;;;;1.40;0.70;;;8.60;99.90;;;;;;5024763;28;20483;-81
2023/03/14 05:41:59;;;;;;;1.80;0.80;;;8.60;99.90;;;;;;5024135;28;21112;-80
2023/03/14 05:44:26;;;;;;;2.70;0.67;;;8.70;99.90;;;;;;5024643;28;20455;-81
2023/03/14 05:46:52;;;;;;;1.30;0.60;;;8.70;99.90;;;;;;5023331;28;20465;-81
2023/03/14 05:49:19;;;;;;;2.00;0.80;;;8.80;99.90;;;;;;5022266;28;20575;-81
2023/03/14 05:51:46;;;;;;;1.67;0.60;;;8.80;99.90;;;;;;5022549;28;20470;-80
2023/03/14 05:54:14;;;;;;;2.20;0.90;;;8.80;99.90;;;;;;5020863;28;20457;-81
2023/03/14 05:56:41;;;;;;;1.83;0.70;;;8.80;99.90;;;;;;5022237;28;20529;-81
2023/03/14 05:59:08;;;;;;;2.17;0.80;;;8.80;99.90;;;;;;5020285;28;20458;-81
2023/03/14 06:01:35;;;;;;;1.57;0.80;;;8.80;99.90;;;;;;5019978;28;20487;-79
2023/03/14 06:04:02;;;;;;;1.57;0.80;;;8.80;99.90;;;;;;5021425;28;20465;-80
2023/03/14 06:06:29;;;;;;;1.50;0.70;;;8.80;99.90;;;;;;5019985;28;20458;-80
2023/03/14 06:08:56;;;;;;;1.90;1.00;;;8.80;99.90;;;;;;5026565;28;20454;-80
2023/03/14 06:11:24;;;;;;;2.20;1.40;;;8.80;99.90;;;;;;5015444;28;20470;-80
2023/03/14 06:13:52;;;;;;;4.53;1.20;;;8.90;99.90;;;;;;5020648;28;20537;-81
2023/03/14 06:16:19;;;;;;;5.27;2.47;;;9.00;99.90;;;;;;5019215;28;20546;-80
2023/03/14 06:18:48;;;;;;;4.83;1.70;;;9.00;99.90;;;;;;5023278;28;20518;-80
2023/03/14 06:21:15;;;;;;;3.87;2.20;;;9.10;99.90;;;;;;5020926;28;20497;-79
2023/03/14 06:23:42;;;;;;;3.90;1.93;;;9.10;99.90;;;;;;5023042;28;20456;-81
2023/03/14 06:26:09;;;;;;;5.80;3.00;;;9.20;99.90;;;;;;5025448;28;20542;-80
2023/03/14 06:28:37;;;;;;;6.23;2.20;;;9.20;99.90;;;;;;5023906;28;20456;-80
2023/03/14 06:31:04;;;;;;;4.63;2.13;;;9.30;99.90;;;;;;5008587;28;20467;-80
2023/03/14 06:33:31;;;;;;;3.77;2.00;;;9.30;99.90;;;;;;5017814;28;20456;-81
2023/03/14 06:35:58;;;;;;;5.50;2.20;;;9.30;99.90;;;;;;5019572;28;20468;-80
2023/03/14 06:38:25;;;;;;;5.27;1.80;;;9.30;99.90;;;;;;5018853;28;20458;-79
2023/03/14 06:40:52;;;;;;;5.73;2.50;;;9.40;99.90;;;;;;5016152;28;20494;-79
2023/03/14 06:43:19;;;;;;;4.13;2.43;;;9.40;99.90;;;;;;5010371;28;20551;-80
2023/03/14 06:45:47;;;;;;;3.40;1.80;;;9.40;99.90;;;;;;5019157;28;20537;-80
2023/03/14 06:48:13;;;;;;;3.20;2.03;;;9.40;99.90;;;;;;5017092;28;21169;-80
2023/03/14 06:50:40;;;;;;;2.67;1.63;;;9.50;99.90;;;;;;5018001;28;20549;-81
2023/03/14 06:53:07;;;;;;;2.40;1.57;;;9.50;99.90;;;;;;5020652;28;20482;-81
2023/03/14 06:55:34;;;;;;;2.23;1.20;;;9.50;99.90;;;;;;5018101;28;20479;-81
2023/03/14 06:58:01;;;;;;;5.10;1.50;;;9.50;99.90;;;;;;5017974;28;20473;-81
2023/03/14 07:00:28;;;;;;;2.30;1.20;;;9.50;99.90;;;;;;5017438;28;20492;-80
2023/03/14 07:02:56;;;;;;;1.77;1.10;;;9.60;99.90;;;;;;5018943;28;20461;-80
2023/03/14 07:05:23;;;;;;;1.80;1.27;;;9.60;99.90;;;;;;5019629;28;20494;-81
2023/03/14 07:07:50;;;;;;;2.30;1.00;;;9.70;99.90;;;;;;5017153;28;20495;-80
2023/03/14 07:10:17;;;;;;;2.80;1.37;;;9.70;99.90;;;;;;5016171;28;20533;-81
2023/03/14 07:12:44;;;;;;;3.23;1.27;;;9.70;99.90;;;;;;5018941;28;20945;-81
2023/03/14 07:15:11;;;;;;;2.43;1.20;;;9.70;99.90;;;;;;5015697;28;20452;-80
2023/03/14 07:17:38;;;;;;;2.00;1.27;;;9.90;99.90;;;;;;5019137;28;20527;-80
2023/03/14 07:20:09;;;;;;;1.90;1.10;;;10.00;99.90;;;;;;5021584;28;20493;-81
2023/03/14 07:22:35;;;;;;;2.50;0.77;;;10.00;99.90;;;;;;5012186;28;20493;-80
2023/03/14 07:25:02;;;;;;;1.90;0.97;;;10.10;99.90;;;;;;5017493;28;20480;-80
2023/03/14 07:27:29;;;;;;;1.80;1.00;;;10.20;99.90;;;;;;5017063;28;20488;-80
2023/03/14 07:29:56;;;;;;;2.23;1.20;;;10.20;99.90;;;;;;5015939;28;20818;-79
2023/03/14 07:32:23;;;;;;;1.50;1.00;;;10.20;99.90;;;;;;5015615;28;20557;-79
2023/03/14 07:34:50;;;;;;;3.07;0.83;;;10.10;99.90;;;;;;5012230;28;20461;-81
2023/03/14 07:37:19;;;;;;;1.77;1.17;;;10.10;99.90;;;;;;5008403;28;20787;-81
2023/03/14 07:39:46;;;;;;;1.67;1.10;;;10.10;99.90;;;;;;5011581;28;20450;-79
2023/03/14 07:42:13;;;;;;;1.57;0.80;;;10.20;99.90;;;;;;5016663;28;20546;-80
2023/03/14 07:44:39;;;;;;;3.90;1.50;;;10.30;99.90;;;;;;5012804;28;20880;-80
2023/03/14 07:47:06;;;;;;;2.27;0.90;;;10.20;99.90;;;;;;5015567;28;20837;-80
2023/03/14 07:49:33;;;;;;;2.50;0.90;;;10.30;99.90;;;;;;5015936;28;20745;-78
2023/03/14 07:52:00;;;;;;;2.53;1.00;;;10.30;99.90;;;;;;5013939;28;20994;-79
2023/03/14 07:54:28;;;;;;;1.87;1.00;;;10.40;99.90;;;;;;5017819;28;20494;-79
2023/03/14 07:56:55;;;;;;;2.70;0.80;;;10.50;99.90;;;;;;5013154;28;20521;-80
2023/03/14 07:59:22;;;;;;;1.70;0.90;;;10.40;99.90;;;;;;5015122;28;20489;-78
2023/03/14 08:01:49;;;;;;;1.80;0.70;;;10.40;99.90;;;;;;5015465;28;20484;-80
2023/03/14 08:04:16;;;;;;;1.70;0.80;;;10.30;99.90;;;;;;5016438;28;20875;-80
2023/03/14 08:06:42;;;;;;;4.23;1.07;;;10.40;99.90;;;;;;5020621;28;20832;-81
2023/03/14 08:09:10;;;;;;;1.83;1.03;;;10.50;99.90;;;;;;5019337;28;20547;-80
2023/03/14 08:11:38;;;;;;;2.00;0.80;;;10.40;99.90;;;;;;5011003;28;20481;-80
2023/03/14 08:14:05;;;;;;;6.60;1.10;;;10.40;99.90;;;;;;5016231;28;21157;-81
2023/03/14 08:16:32;;;;;;;1.83;1.23;;;10.50;99.90;;;;;;5015951;28;20459;-80
2023/03/14 08:18:58;;;;;;;1.60;0.90;;;10.50;99.90;;;;;;5015902;28;20453;-81
2023/03/14 08:21:25;;;;;;;2.17;1.20;;;10.60;99.90;;;;;;5015080;28;21062;-80
2023/03/14 08:23:52;;;;;;;1.80;1.10;;;10.50;99.90;;;;;;5013867;28;20479;-79
2023/03/14 08:26:19;;;;;;;1.40;0.90;;;10.50;99.90;;;;;;5016958;28;20456;-80
2023/03/14 08:28:47;;;;;;;2.63;1.10;;;10.60;99.90;;;;;;5016728;28;20547;-79
2023/03/14 08:31:14;;;;;;;1.60;1.10;;;10.80;99.90;;;;;;5014331;28;20472;-80
2023/03/14 08:33:41;;;;;;;1.90;1.10;;;10.70;99.90;;;;;;5016409;28;20464;-79
2023/03/14 08:36:08;;;;;;;3.07;0.97;;;10.60;99.90;;;;;;5015478;28;20499;-79
2023/03/14 08:38:35;;;;;;;2.37;1.13;;;10.50;99.90;;;;;;5015824;28;20493;-79
2023/03/14 08:41:03;;;;;;;1.70;1.23;;;10.50;99.90;;;;;;5015695;28;20511;-79
2023/03/14 08:43:30;;;;;;;1.83;1.10;;;10.50;99.90;;;;;;5015917;28;20470;-80
2023/03/14 08:46:01;;;;;;;1.87;1.33;;;10.60;99.90;;;;;;5016292;28;20459;-79
2023/03/14 08:48:29;;;;;;;1.90;1.10;;;10.70;99.90;;;;;;5011334;28;20448;-78
2023/03/14 08:50:56;;;;;;;2.10;1.50;;;11.00;99.90;;;;;;5014484;28;21224;-78
2023/03/14 08:53:23;;;;;;;2.50;1.37;;;11.40;99.90;;;;;;5015184;28;20496;-79
2023/03/14 08:55:54;;;;;;;3.60;1.50;;;11.60;99.90;;;;;;5014149;28;20456;-79
2023/03/14 08:58:22;;;;;;;3.10;1.30;;;11.80;99.90;;;;;;5014995;28;20453;-78
2023/03/14 09:00:49;;;;;;;1.60;1.30;;;11.80;99.90;;;;;;5017215;28;20492;-79
2023/03/14 09:03:17;;;;;;;1.80;1.20;;;11.80;99.90;;;;;;5015308;28;20512;-79
2023/03/14 09:05:44;;;;;;;2.57;1.47;;;11.70;99.90;;;;;;5013975;28;20461;-80
2023/03/14 09:08:11;;;;;;;1.95;1.30;;;11.70;99.90;;;;;;5016143;28;20899;-81
2023/03/14 09:10:38;;;;;;;2.80;1.10;;;11.60;99.90;;;;;;5013777;28;20310;-81
2023/03/14 09:13:05;;;;;;;2.87;1.40;;;11.50;99.90;;;;;;5019444;28;20477;-81
2023/03/14 09:15:32;;;;;;;1.77;1.00;;;11.40;99.90;;;;;;5015455;28;20469;-80
2023/03/14 09:17:59;;;;;;;3.10;1.13;;;11.20;99.90;;;;;;5017189;28;20949;-80
2023/03/14 09:20:27;;;;;;;3.03;1.00;;;11.10;99.90;;;;;;5013606;28;20560;-81
2023/03/14 09:22:54;;;;;;;2.00;1.07;;;11.00;99.90;;;;;;5017591;28;20492;-80
2023/03/14 09:25:21;;;;;;;2.10;1.23;;;10.90;99.90;;;;;;5017886;28;20485;-79
2023/03/14 09:27:48;;;;;;;2.10;1.70;;;10.70;99.90;;;;;;5018689;28;20980;-80
2023/03/14 09:30:15;;;;;;;2.33;1.93;;;10.60;99.90;;;;;;5017421;28;20460;-80
2023/03/14 09:32:42;;;;;;;2.00;1.50;;;10.50;99.90;;;;;;5016390;28;20540;-81
2023/03/14 09:35:09;;;;;;;3.00;1.57;;;10.50;99.90;;;;;;5017387;28;20456;-81
2023/03/14 09:37:38;;;;;;;3.13;1.70;;;10.50;99.90;;;;;;5014674;28;20460;-79
2023/03/14 09:40:10;;;;;;;2.03;0.90;;;10.30;99.90;;;;;;5003747;28;20976;-80
2023/03/14 09:42:38;;;;;;;5.10;0.80;;;10.00;99.90;;;;;;5016170;28;20710;-81
2023/03/14 09:45:07;;;;;;;1.33;0.67;;;9.90;99.90;;;;;;5010966;28;20956;-81
2023/03/14 09:47:35;;;;;;;1.80;0.90;;;9.70;99.90;;;;;;5012370;28;20468;-78
2023/03/14 09:50:03;;;;;;;1.83;0.90;;;9.50;99.90;;;;;;5010176;28;20469;-80
2023/03/14 09:52:32;;;;;;;2.03;0.73;;;9.50;99.90;;;;;;5014664;28;20935;-80
2023/03/14 09:55:04;;;;;;;3.37;1.10;;;9.60;99.90;;;;;;5000975;28;20918;-79
2023/03/14 09:57:33;;;;;;;1.83;0.77;;;9.50;99.90;;;;;;5008737;28;20454;-79
2023/03/14 10:00:11;;;;;;;1.50;0.80;;;9.60;99.90;;;;;;4999891;28;20482;-79
2023/03/14 10:02:39;;;;;;;2.07;0.80;;;9.50;99.90;;;;;;5015839;28;21024;-80
2023/03/14 10:05:09;;;;;;;2.20;1.10;;;9.40;99.90;;;;;;5011641;28;20459;-81
2023/03/14 10:07:36;;;;;;;1.70;1.00;;;9.20;99.90;;;;;;5013195;28;20558;-80
2023/03/14 10:10:12;;;;;;;3.90;1.90;;;9.00;99.90;;;;;;5007824;28;20828;-80
2023/03/14 10:12:39;;;;;;;1.90;1.23;;;9.00;99.90;;;;;;5012903;28;20595;-79
2023/03/14 10:15:09;;;;;;;2.83;1.77;;;9.10;99.90;;;;;;5012356;28;20465;-80
2023/03/14 10:17:40;;;;;;;2.10;1.20;;;9.20;99.90;;;;;;5014543;28;20465;-79
2023/03/14 10:20:10;;;;;;;2.57;1.20;;;9.10;99.90;;;;;;5011231;28;20457;-79
2023/03/14 10:22:37;;;;;;;3.23;2.07;;;9.10;99.90;;;;;;5011380;28;20520;-78
2023/03/14 10:25:24;;;;;;;3.27;1.10;;;9.00;99.90;;;;;;5010095;28;20445;-81
2023/03/14 10:27:51;;;;;;;1.70;1.27;;;9.10;99.90;;;;;;5010393;28;20541;-80
2023/03/14 10:30:31;;;;;;;2.57;1.30;;;9.00;99.90;;;;;;5011550;28;20553;-80
2023/03/14 10:32:57;;;;;;;1.90;1.23;;;9.00;99.90;;;;;;5013375;28;20475;-78
2023/03/14 10:35:25;;;;;;;1.80;1.30;;;9.00;99.90;;;;;;5010775;28;20546;-78
2023/03/14 10:37:55;;;;;;;2.20;1.30;;;9.10;99.90;;;;;;5010744;28;20536;-81
2023/03/14 10:40:28;;;;;;;2.77;1.10;;;9.10;99.90;;;;;;5008793;28;20842;-78
2023/03/14 10:42:55;;;;;;;2.80;0.97;;;9.00;99.90;;;;;;5012685;28;21044;-80
2023/03/14 10:45:37;;;;;;;5.90;1.20;;;8.90;99.90;;;;;;5011712;28;20558;-79
2023/03/14 10:48:19;;;;;;;1.87;1.03;;;8.80;99.90;;;;;;5013133;28;20462;-79
2023/03/14 10:50:55;;;;;;;2.07;1.50;;;8.80;99.90;;;;;;5012426;28;20477;-78
2023/03/14 10:53:22;;;;;;;2.63;1.10;;;8.90;99.90;;;;;;5019956;28;20445;-78
2023/03/14 10:55:50;;;;;;;4.27;1.23;;;8.80;99.90;;;;;;5016384;28;20467;-80
2023/03/14 10:58:22;;;;;;;1.63;1.10;;;8.70;99.90;;;;;;5013539;28;20966;-80
2023/03/14 11:00:54;;;;;;;1.77;1.10;;;8.70;99.90;;;;;;5016800;28;20475;-80
2023/03/14 11:03:22;;;;;;;3.20;1.07;;;8.40;99.90;;;;;;5012637;28;20927;-80
2023/03/14 11:05:56;;;;;;;4.53;1.20;;;8.20;99.90;;;;;;5008790;28;20514;-83
2023/03/14 11:08:28;;;;;;;4.03;1.10;;;8.00;99.90;;;;;;5014675;28;20461;-82
2023/03/14 11:11:03;;;;;;;3.80;1.13;;;7.90;99.90;;;;;;5016917;28;20557;-82
2023/03/14 11:13:37;;;;;;;2.30;0.90;;;8.00;99.90;;;;;;5019519;28;20468;-82
2023/03/14 11:16:09;;;;;;;3.40;0.90;;;8.00;99.90;;;;;;5018155;28;20548;-83
2023/03/14 11:18:58;;;;;;;8.00;1.10;;;8.30;99.90;;;;;;5019533;28;20453;-82
2023/03/14 11:21:35;;;;;;;1.30;0.70;;;9.00;99.90;;;;;;5024327;28;20580;-81
2023/03/14 11:24:24;;;;;;;3.10;0.80;;;9.40;99.90;;;;;;5016509;28;20457;-83
2023/03/14 11:26:58;;;;;;;2.50;1.00;;;9.60;46.00;;;;;;5012094;28;20449;-82
2023/03/14 11:29:33;;;;;;;2.33;0.97;;;9.40;1.00;;;;;;5013037;28;20443;-82
2023/03/14 11:32:05;;;;;;;1.70;0.83;;;9.10;1.00;;;;;;5016123;28;20458;-82
2023/03/14 11:34:40;;;;;;;2.50;0.80;;;9.60;1.00;;;;;;5015649;28;20531;-82
2023/03/14 11:37:15;;;;;;;1.77;0.60;;;10.10;1.00;;;;;;5011926;28;20474;-85
2023/03/14 11:39:47;;;;;;;1.40;0.60;;;10.70;1.00;;;;;;5011714;28;20821;-84
2023/03/14 11:42:17;;;;;;;1.47;0.73;;;10.40;99.90;;;;;;5006427;28;20493;-83
2023/03/14 11:44:47;;;;;;;1.40;0.60;;;10.20;1.00;;;;;;5009107;28;20446;-83
2023/03/14 11:47:20;;;;;;;1.70;0.80;;;9.80;1.00;;;;;;5013279;28;20451;-82
2023/03/14 11:49:51;;;;;;;2.07;0.77;;;9.60;99.90;;;;;;5011919;28;20473;-81
2023/03/14 11:52:24;;;;;;;2.40;0.70;;;9.50;1.00;;;;;;5012389;28;20480;-81
2023/03/14 11:54:55;;;;;;;3.30;1.00;;;9.30;1.00;;;;;;5011688;28;20461;-83
2023/03/14 11:57:24;;;;;;;1.93;0.80;;;9.00;1.00;;;;;;5015716;28;20456;-80
2023/03/14 11:59:56;;;;;;;1.67;0.87;;;8.70;1.00;;;;;;5008451;28;20464;-83
2023/03/14 12:02:28;;;;;;;2.13;0.90;;;8.50;1.00;;;;;;5013546;28;20504;-83
2023/03/14 12:05:13;;;;;;;2.60;0.83;;;8.30;1.00;;;;;;5012168;28;20456;-83
2023/03/14 12:07:46;;;;;;;5.40;1.10;;;8.30;1.00;;;;;;5005463;28;20815;-83
2023/03/14 12:10:13;;;;;;;1.43;1.00;;;8.20;1.00;;;;;;5018516;28;20528;-82
2023/03/14 12:12:41;;;;;;;2.70;0.90;;;8.20;1.00;;;;;;5008812;28;20530;-82
2023/03/14 12:15:20;;;;;;;1.63;0.90;;;8.10;1.00;;;;;;5005011;28;20837;-82
2023/03/14 12:17:47;;;;;;;3.77;0.97;;;7.90;1.00;;;;;;5007283;28;20548;-82
2023/03/14 12:20:19;;;;;;;6.03;1.20;;;8.00;11.20;;;;;;5009027;28;20957;-83
2023/03/14 12:22:48;;;;;;;3.03;1.20;;;7.80;1.00;;;;;;5006389;28;20545;-81
2023/03/14 12:25:18;;;;;;;3.10;1.13;;;7.90;1.00;;;;;;5008538;28;20467;-83
2023/03/14 12:28:21;;;;;;;1.97;1.07;;;8.10;93.90;;;;;;5004077;28;20461;-82
2023/03/14 12:30:48;;;;;;;5.03;0.97;;;9.20;3.70;;;;;;5007572;28;20474;-81
2023/03/14 12:33:27;;;;;;;4.63;1.10;;;9.90;1.00;;;;;;5006728;28;20534;-84
2023/03/14 12:36:00;;;;;;;14.50;7.57;;;10.50;1.00;;;;;;5004757;28;20532;-84
2023/03/14 12:38:38;;;;;;;4.60;2.73;;;11.10;99.90;;;;;;5008234;28;20460;-83
2023/03/14 12:41:14;;;;;;;5.03;1.60;;;11.40;1.00;;;;;;5010533;28;20838;-82
2023/03/14 12:43:42;;;;;;;3.40;0.90;;;11.60;1.00;;;;;;5006993;28;20481;-82
2023/03/14 12:46:20;;;;;;;6.83;1.60;;;11.40;1.00;;;;;;5011714;28;20462;-83
2023/03/14 12:48:49;;;;;;;1.70;0.93;;;11.30;99.90;;;;;;5012444;28;20507;-82
2023/03/14 12:51:17;;;;;;;3.10;0.90;;;11.40;99.90;;;;;;5011342;28;20486;-83
2023/03/14 12:54:16;;;;;;;4.50;1.07;;;11.20;1.00;;;;;;5014505;28;20827;-83
2023/03/14 12:57:05;;;;;;;5.63;1.13;;;10.80;1.00;;;;;;5013475;28;20897;-82
2023/03/14 12:59:35;;;;;;;5.53;1.30;;;10.40;99.90;;;;;;5017749;28;20456;-83
2023/03/14 13:02:15;;;;;;;6.97;1.53;;;10.10;99.90;;;;;;5018458;28;20496;-83
2023/03/14 13:04:47;;;;;;;6.30;1.80;;;9.40;99.90;;;;;;5015553;28;20471;-82